sensor_id;sensor_type;location;lat;lon;timestamp;P1;durP1;ratioP1;P2;durP2;ratioP2
46931;SDS011;32670;51.464;11.964;2023-04-01T00:00:07;2.03;;;1.90;;
46931;SDS011;32670;51.464;11.964;2023-04-01T00:02:34;3.17;;;2.17;;
46931;SDS011;32670;51.464;11.964;2023-04-01T00:05:00;3.70;;;1.90;;
46931;SDS011;32670;51.464;11.964;2023-04-01T00:07:26;3.87;;;2.20;;
46931;SDS011;32670;51.464;11.964;2023-04-01T00:09:52;5.37;;;2.00;;
46931;SDS011;32670;51.464;11.964;2023-04-01T00:12:17;4.33;;;2.20;;
46931;SDS011;32670;51.464;11.964;2023-04-01T00:14:43;3.03;;;2.20;;
46931;SDS011;32670;51.464;11.964;2023-04-01T00:17:08;2.40;;;1.70;;
46931;SDS011;32670;51.464;11.964;2023-04-01T00:19:34;2.23;;;2.03;;
46931;SDS011;32670;51.464;11.964;2023-04-01T00:22:00;2.90;;;2.47;;
46931;SDS011;32670;51.464;11.964;2023-04-01T00:24:26;1.90;;;1.80;;
46931;SDS011;32670;51.464;11.964;2023-04-01T00:26:51;5.00;;;2.00;;
46931;SDS011;32670;51.464;11.964;2023-04-01T00:29:17;1.80;;;1.70;;
46931;SDS011;32670;51.464;11.964;2023-04-01T00:31:42;2.90;;;2.10;;
46931;SDS011;32670;51.464;11.964;2023-04-01T00:34:08;3.60;;;2.10;;
46931;SDS011;32670;51.464;11.964;2023-04-01T00:36:33;2.37;;;2.10;;
46931;SDS011;32670;51.464;11.964;2023-04-01T00:38:59;2.27;;;2.07;;
46931;SDS011;32670;51.464;11.964;2023-04-01T00:41:25;1.90;;;1.70;;
46931;SDS011;32670;51.464;11.964;2023-04-01T00:43:51;2.53;;;2.33;;
46931;SDS011;32670;51.464;11.964;2023-04-01T00:46:17;2.23;;;2.03;;
46931;SDS011;32670;51.464;11.964;2023-04-01T00:48:44;2.80;;;1.93;;
46931;SDS011;32670;51.464;11.964;2023-04-01T00:51:17;2.17;;;2.00;;
46931;SDS011;32670;51.464;11.964;2023-04-01T00:53:47;2.37;;;1.97;;
46931;SDS011;32670;51.464;11.964;2023-04-01T00:56:17;2.00;;;1.90;;
46931;SDS011;32670;51.464;11.964;2023-04-01T00:58:48;2.03;;;1.80;;
46931;SDS011;32670;51.464;11.964;2023-04-01T01:01:16;2.33;;;1.87;;
46931;SDS011;32670;51.464;11.964;2023-04-01T01:03:43;3.27;;;2.00;;
46931;SDS011;32670;51.464;11.964;2023-04-01T01:06:10;3.10;;;1.80;;
46931;SDS011;32670;51.464;11.964;2023-04-01T01:11:43;2.47;;;1.83;;
46931;SDS011;32670;51.464;11.964;2023-04-01T01:14:25;2.73;;;1.80;;
46931;SDS011;32670;51.464;11.964;2023-04-01T01:17:14;3.37;;;2.23;;
46931;SDS011;32670;51.464;11.964;2023-04-01T01:20:29;4.00;;;2.00;;
46931;SDS011;32670;51.464;11.964;2023-04-01T01:31:23;2.13;;;1.70;;
46931;SDS011;32670;51.464;11.964;2023-04-01T01:34:04;3.07;;;1.90;;
46931;SDS011;32670;51.464;11.964;2023-04-01T01:36:40;2.27;;;1.97;;
46931;SDS011;32670;51.464;11.964;2023-04-01T01:39:10;1.90;;;1.80;;
46931;SDS011;32670;51.464;11.964;2023-04-01T01:41:37;2.07;;;1.90;;
46931;SDS011;32670;51.464;11.964;2023-04-01T01:44:05;4.70;;;1.90;;
46931;SDS011;32670;51.464;11.964;2023-04-01T01:46:33;3.50;;;2.07;;
46931;SDS011;32670;51.464;11.964;2023-04-01T01:48:59;1.90;;;1.70;;
46931;SDS011;32670;51.464;11.964;2023-04-01T01:51:27;3.27;;;2.00;;
46931;SDS011;32670;51.464;11.964;2023-04-01T01:53:53;2.60;;;1.93;;
46931;SDS011;32670;51.464;11.964;2023-04-01T01:56:19;1.97;;;1.73;;
46931;SDS011;32670;51.464;11.964;2023-04-01T01:58:49;2.40;;;2.10;;
46931;SDS011;32670;51.464;11.964;2023-04-01T02:01:25;2.53;;;1.80;;
46931;SDS011;32670;51.464;11.964;2023-04-01T02:03:53;1.80;;;1.67;;
46931;SDS011;32670;51.464;11.964;2023-04-01T02:06:21;1.80;;;1.70;;
46931;SDS011;32670;51.464;11.964;2023-04-01T02:08:50;1.97;;;1.70;;
46931;SDS011;32670;51.464;11.964;2023-04-01T02:11:19;2.20;;;2.00;;
46931;SDS011;32670;51.464;11.964;2023-04-01T02:13:58;3.03;;;1.83;;
46931;SDS011;32670;51.464;11.964;2023-04-01T02:19:17;3.23;;;1.87;;
46931;SDS011;32670;51.464;11.964;2023-04-01T02:21:47;2.90;;;1.90;;
46931;SDS011;32670;51.464;11.964;2023-04-01T02:24:16;1.93;;;1.77;;
46931;SDS011;32670;51.464;11.964;2023-04-01T02:26:42;1.60;;;1.50;;
46931;SDS011;32670;51.464;11.964;2023-04-01T02:29:10;2.13;;;1.90;;
46931;SDS011;32670;51.464;11.964;2023-04-01T02:31:37;2.43;;;1.77;;
46931;SDS011;32670;51.464;11.964;2023-04-01T02:34:03;2.07;;;1.87;;
46931;SDS011;32670;51.464;11.964;2023-04-01T02:36:28;1.67;;;1.57;;
46931;SDS011;32670;51.464;11.964;2023-04-01T02:38:54;2.23;;;1.60;;
46931;SDS011;32670;51.464;11.964;2023-04-01T02:41:24;1.93;;;1.50;;
46931;SDS011;32670;51.464;11.964;2023-04-01T02:43:49;1.93;;;1.83;;
46931;SDS011;32670;51.464;11.964;2023-04-01T02:46:15;2.20;;;1.87;;
46931;SDS011;32670;51.464;11.964;2023-04-01T02:48:40;2.80;;;1.50;;
46931;SDS011;32670;51.464;11.964;2023-04-01T02:51:06;1.83;;;1.63;;
46931;SDS011;32670;51.464;11.964;2023-04-01T02:53:31;2.97;;;1.70;;
46931;SDS011;32670;51.464;11.964;2023-04-01T02:55:56;1.50;;;1.40;;
46931;SDS011;32670;51.464;11.964;2023-04-01T02:58:22;1.87;;;1.70;;
46931;SDS011;32670;51.464;11.964;2023-04-01T03:00:47;2.13;;;1.60;;
46931;SDS011;32670;51.464;11.964;2023-04-01T03:03:13;2.90;;;1.70;;
46931;SDS011;32670;51.464;11.964;2023-04-01T03:05:38;1.70;;;1.60;;
46931;SDS011;32670;51.464;11.964;2023-04-01T03:08:04;1.70;;;1.60;;
46931;SDS011;32670;51.464;11.964;2023-04-01T03:10:31;1.90;;;1.70;;
46931;SDS011;32670;51.464;11.964;2023-04-01T03:12:56;1.70;;;1.60;;
46931;SDS011;32670;51.464;11.964;2023-04-01T03:15:22;1.73;;;1.63;;
46931;SDS011;32670;51.464;11.964;2023-04-01T03:17:47;1.93;;;1.73;;
46931;SDS011;32670;51.464;11.964;2023-04-01T03:20:13;1.87;;;1.60;;
46931;SDS011;32670;51.464;11.964;2023-04-01T03:22:39;2.00;;;1.77;;
46931;SDS011;32670;51.464;11.964;2023-04-01T03:25:05;2.73;;;1.77;;
46931;SDS011;32670;51.464;11.964;2023-04-01T03:27:32;2.73;;;1.80;;
46931;SDS011;32670;51.464;11.964;2023-04-01T03:29:58;2.70;;;1.67;;
46931;SDS011;32670;51.464;11.964;2023-04-01T03:32:23;1.37;;;1.27;;
46931;SDS011;32670;51.464;11.964;2023-04-01T03:34:49;1.70;;;1.47;;
46931;SDS011;32670;51.464;11.964;2023-04-01T03:37:14;1.97;;;1.50;;
46931;SDS011;32670;51.464;11.964;2023-04-01T03:39:40;2.63;;;1.50;;
46931;SDS011;32670;51.464;11.964;2023-04-01T03:42:05;2.37;;;1.67;;
46931;SDS011;32670;51.464;11.964;2023-04-01T03:44:31;1.40;;;1.30;;
46931;SDS011;32670;51.464;11.964;2023-04-01T03:46:58;1.83;;;1.73;;
46931;SDS011;32670;51.464;11.964;2023-04-01T03:49:23;1.60;;;1.40;;
46931;SDS011;32670;51.464;11.964;2023-04-01T03:51:49;2.70;;;1.57;;
46931;SDS011;32670;51.464;11.964;2023-04-01T03:54:14;1.70;;;1.60;;
46931;SDS011;32670;51.464;11.964;2023-04-01T03:56:40;2.20;;;1.70;;
46931;SDS011;32670;51.464;11.964;2023-04-01T03:59:06;2.00;;;1.80;;
46931;SDS011;32670;51.464;11.964;2023-04-01T04:01:32;2.87;;;1.60;;
46931;SDS011;32670;51.464;11.964;2023-04-01T04:03:58;1.63;;;1.53;;
46931;SDS011;32670;51.464;11.964;2023-04-01T04:06:24;1.53;;;1.43;;
46931;SDS011;32670;51.464;11.964;2023-04-01T04:08:50;1.60;;;1.47;;
46931;SDS011;32670;51.464;11.964;2023-04-01T04:11:15;1.60;;;1.50;;
46931;SDS011;32670;51.464;11.964;2023-04-01T04:13:42;1.50;;;1.40;;
46931;SDS011;32670;51.464;11.964;2023-04-01T04:16:08;1.60;;;1.50;;
46931;SDS011;32670;51.464;11.964;2023-04-01T04:18:34;4.93;;;1.40;;
46931;SDS011;32670;51.464;11.964;2023-04-01T04:21:00;1.60;;;1.50;;
46931;SDS011;32670;51.464;11.964;2023-04-01T04:23:25;1.77;;;1.67;;
46931;SDS011;32670;51.464;11.964;2023-04-01T04:25:59;2.10;;;1.40;;
46931;SDS011;32670;51.464;11.964;2023-04-01T04:28:27;3.37;;;1.43;;
46931;SDS011;32670;51.464;11.964;2023-04-01T04:30:53;2.90;;;1.60;;
46931;SDS011;32670;51.464;11.964;2023-04-01T04:33:20;4.00;;;1.60;;
46931;SDS011;32670;51.464;11.964;2023-04-01T04:35:46;3.07;;;1.43;;
46931;SDS011;32670;51.464;11.964;2023-04-01T04:38:14;1.57;;;1.40;;
46931;SDS011;32670;51.464;11.964;2023-04-01T04:40:40;2.17;;;1.20;;
46931;SDS011;32670;51.464;11.964;2023-04-01T04:43:07;2.70;;;1.57;;
46931;SDS011;32670;51.464;11.964;2023-04-01T04:45:35;2.10;;;1.67;;
46931;SDS011;32670;51.464;11.964;2023-04-01T04:48:00;2.13;;;1.40;;
46931;SDS011;32670;51.464;11.964;2023-04-01T04:50:25;2.57;;;1.60;;
46931;SDS011;32670;51.464;11.964;2023-04-01T04:52:51;2.50;;;1.70;;
46931;SDS011;32670;51.464;11.964;2023-04-01T04:55:16;1.87;;;1.53;;
46931;SDS011;32670;51.464;11.964;2023-04-01T04:57:42;5.20;;;1.40;;
46931;SDS011;32670;51.464;11.964;2023-04-01T05:00:08;1.80;;;1.50;;
46931;SDS011;32670;51.464;11.964;2023-04-01T05:02:35;2.73;;;1.33;;
46931;SDS011;32670;51.464;11.964;2023-04-01T05:05:00;3.97;;;1.50;;
46931;SDS011;32670;51.464;11.964;2023-04-01T05:07:26;4.23;;;1.50;;
46931;SDS011;32670;51.464;11.964;2023-04-01T05:09:51;3.60;;;1.50;;
46931;SDS011;32670;51.464;11.964;2023-04-01T05:12:17;3.17;;;1.40;;
46931;SDS011;32670;51.464;11.964;2023-04-01T05:14:42;3.20;;;1.40;;
46931;SDS011;32670;51.464;11.964;2023-04-01T05:17:09;1.30;;;1.20;;
46931;SDS011;32670;51.464;11.964;2023-04-01T05:19:36;1.70;;;1.13;;
46931;SDS011;32670;51.464;11.964;2023-04-01T05:22:01;4.80;;;1.40;;
46931;SDS011;32670;51.464;11.964;2023-04-01T05:24:27;6.33;;;1.53;;
46931;SDS011;32670;51.464;11.964;2023-04-01T05:26:53;6.23;;;1.60;;
46931;SDS011;32670;51.464;11.964;2023-04-01T05:29:18;3.80;;;1.40;;
46931;SDS011;32670;51.464;11.964;2023-04-01T05:31:43;2.87;;;1.20;;
46931;SDS011;32670;51.464;11.964;2023-04-01T05:34:09;5.00;;;1.43;;
46931;SDS011;32670;51.464;11.964;2023-04-01T05:36:35;3.90;;;1.30;;
46931;SDS011;32670;51.464;11.964;2023-04-01T05:39:01;4.20;;;1.33;;
46931;SDS011;32670;51.464;11.964;2023-04-01T05:41:26;2.70;;;1.10;;
46931;SDS011;32670;51.464;11.964;2023-04-01T05:43:52;3.57;;;1.00;;
46931;SDS011;32670;51.464;11.964;2023-04-01T05:46:17;2.67;;;0.80;;
46931;SDS011;32670;51.464;11.964;2023-04-01T05:48:42;1.03;;;0.90;;
46931;SDS011;32670;51.464;11.964;2023-04-01T05:51:12;1.20;;;0.90;;
46931;SDS011;32670;51.464;11.964;2023-04-01T05:53:39;2.47;;;0.90;;
46931;SDS011;32670;51.464;11.964;2023-04-01T05:56:05;1.03;;;0.83;;
46931;SDS011;32670;51.464;11.964;2023-04-01T05:58:31;1.73;;;1.00;;
46931;SDS011;32670;51.464;11.964;2023-04-01T06:01:04;1.70;;;0.80;;
46931;SDS011;32670;51.464;11.964;2023-04-01T06:03:34;1.60;;;1.00;;
46931;SDS011;32670;51.464;11.964;2023-04-01T06:06:00;1.57;;;1.03;;
46931;SDS011;32670;51.464;11.964;2023-04-01T06:08:26;2.20;;;1.03;;
46931;SDS011;32670;51.464;11.964;2023-04-01T06:13:33;2.17;;;1.10;;
46931;SDS011;32670;51.464;11.964;2023-04-01T06:24:51;1.73;;;0.93;;
46931;SDS011;32670;51.464;11.964;2023-04-01T06:27:45;2.83;;;1.10;;
46931;SDS011;32670;51.464;11.964;2023-04-01T06:36:08;1.83;;;0.87;;
46931;SDS011;32670;51.464;11.964;2023-04-01T06:38:52;11.43;;;1.20;;
46931;SDS011;32670;51.464;11.964;2023-04-01T06:41:31;2.13;;;0.90;;
46931;SDS011;32670;51.464;11.964;2023-04-01T06:44:20;6.77;;;1.20;;
46931;SDS011;32670;51.464;11.964;2023-04-01T06:46:58;3.43;;;1.10;;
46931;SDS011;32670;51.464;11.964;2023-04-01T06:49:55;5.00;;;1.07;;
46931;SDS011;32670;51.464;11.964;2023-04-01T06:55:02;2.80;;;0.83;;
46931;SDS011;32670;51.464;11.964;2023-04-01T06:57:51;3.47;;;1.10;;
46931;SDS011;32670;51.464;11.964;2023-04-01T07:00:33;4.70;;;1.00;;
46931;SDS011;32670;51.464;11.964;2023-04-01T07:03:16;2.43;;;0.87;;
46931;SDS011;32670;51.464;11.964;2023-04-01T07:05:47;3.57;;;1.03;;
46931;SDS011;32670;51.464;11.964;2023-04-01T07:08:15;1.47;;;0.80;;
46931;SDS011;32670;51.464;11.964;2023-04-01T07:10:47;2.27;;;1.07;;
46931;SDS011;32670;51.464;11.964;2023-04-01T07:13:28;3.47;;;1.00;;
46931;SDS011;32670;51.464;11.964;2023-04-01T07:21:36;2.50;;;1.03;;
46931;SDS011;32670;51.464;11.964;2023-04-01T07:24:17;2.87;;;1.10;;
46931;SDS011;32670;51.464;11.964;2023-04-01T07:26:49;3.77;;;1.20;;
46931;SDS011;32670;51.464;11.964;2023-04-01T07:29:19;1.77;;;0.80;;
46931;SDS011;32670;51.464;11.964;2023-04-01T07:34:43;2.97;;;1.07;;
46931;SDS011;32670;51.464;11.964;2023-04-01T07:40:11;1.93;;;0.97;;
46931;SDS011;32670;51.464;11.964;2023-04-01T07:42:56;1.23;;;0.93;;
46931;SDS011;32670;51.464;11.964;2023-04-01T07:45:41;3.27;;;0.90;;
46931;SDS011;32670;51.464;11.964;2023-04-01T07:48:21;2.27;;;1.10;;
46931;SDS011;32670;51.464;11.964;2023-04-01T07:53:45;2.30;;;1.13;;
46931;SDS011;32670;51.464;11.964;2023-04-01T07:56:26;2.17;;;0.90;;
46931;SDS011;32670;51.464;11.964;2023-04-01T07:59:17;2.00;;;1.00;;
46931;SDS011;32670;51.464;11.964;2023-04-01T08:01:58;4.87;;;3.80;;
46931;SDS011;32670;51.464;11.964;2023-04-01T08:07:35;3.87;;;2.07;;
46931;SDS011;32670;51.464;11.964;2023-04-01T08:10:21;6.20;;;2.30;;
46931;SDS011;32670;51.464;11.964;2023-04-01T08:13:08;3.17;;;2.00;;
46931;SDS011;32670;51.464;11.964;2023-04-01T08:21:38;4.93;;;2.37;;
46931;SDS011;32670;51.464;11.964;2023-04-01T08:24:28;2.60;;;2.10;;
46931;SDS011;32670;51.464;11.964;2023-04-01T08:27:01;2.83;;;2.07;;
46931;SDS011;32670;51.464;11.964;2023-04-01T08:32:08;6.07;;;2.53;;
46931;SDS011;32670;51.464;11.964;2023-04-01T08:34:46;4.87;;;2.43;;
46931;SDS011;32670;51.464;11.964;2023-04-01T08:37:17;5.50;;;2.50;;
46931;SDS011;32670;51.464;11.964;2023-04-01T08:39:57;3.40;;;2.23;;
46931;SDS011;32670;51.464;11.964;2023-04-01T08:48:33;4.53;;;2.57;;
46931;SDS011;32670;51.464;11.964;2023-04-01T08:51:28;2.40;;;2.00;;
46931;SDS011;32670;51.464;11.964;2023-04-01T08:54:20;3.97;;;2.30;;
46931;SDS011;32670;51.464;11.964;2023-04-01T08:57:13;4.47;;;2.90;;
46931;SDS011;32670;51.464;11.964;2023-04-01T09:03:19;3.97;;;2.53;;
46931;SDS011;32670;51.464;11.964;2023-04-01T09:06:05;2.90;;;2.40;;
46931;SDS011;32670;51.464;11.964;2023-04-01T09:09:02;3.50;;;2.60;;
46931;SDS011;32670;51.464;11.964;2023-04-01T09:11:54;3.37;;;2.33;;
46931;SDS011;32670;51.464;11.964;2023-04-01T09:14:40;3.07;;;2.27;;
46931;SDS011;32670;51.464;11.964;2023-04-01T09:23:21;2.77;;;2.27;;
46931;SDS011;32670;51.464;11.964;2023-04-01T09:26:33;3.17;;;2.40;;
46931;SDS011;32670;51.464;11.964;2023-04-01T09:30:19;2.90;;;2.30;;
46931;SDS011;32670;51.464;11.964;2023-04-01T09:32:37;3.13;;;2.50;;
46931;SDS011;32670;51.464;11.964;2023-04-01T09:35:20;2.80;;;2.40;;
46931;SDS011;32670;51.464;11.964;2023-04-01T09:43:46;2.20;;;2.00;;
46931;SDS011;32670;51.464;11.964;2023-04-01T09:46:31;4.90;;;2.70;;
46931;SDS011;32670;51.464;11.964;2023-04-01T09:49:22;2.63;;;2.33;;
46931;SDS011;32670;51.464;11.964;2023-04-01T10:05:57;3.13;;;2.20;;
46931;SDS011;32670;51.464;11.964;2023-04-01T10:11:51;2.60;;;2.23;;
46931;SDS011;32670;51.464;11.964;2023-04-01T10:14:46;2.80;;;2.40;;
46931;SDS011;32670;51.464;11.964;2023-04-01T10:17:48;2.53;;;2.33;;
46931;SDS011;32670;51.464;11.964;2023-04-01T10:21:05;2.67;;;2.17;;
46931;SDS011;32670;51.464;11.964;2023-04-01T10:27:06;2.53;;;2.30;;
46931;SDS011;32670;51.464;11.964;2023-04-01T10:35:20;2.40;;;2.20;;
46931;SDS011;32670;51.464;11.964;2023-04-01T10:41:12;2.60;;;2.40;;
46931;SDS011;32670;51.464;11.964;2023-04-01T10:47:16;2.83;;;2.30;;
46931;SDS011;32670;51.464;11.964;2023-04-01T10:50:04;2.93;;;2.60;;
46931;SDS011;32670;51.464;11.964;2023-04-01T10:58:53;3.00;;;2.70;;
46931;SDS011;32670;51.464;11.964;2023-04-01T11:02:17;4.40;;;2.83;;
46931;SDS011;32670;51.464;11.964;2023-04-01T11:07:50;3.07;;;2.87;;
46931;SDS011;32670;51.464;11.964;2023-04-01T11:11:01;3.70;;;3.00;;
46931;SDS011;32670;51.464;11.964;2023-04-01T11:13:55;2.90;;;2.60;;
46931;SDS011;32670;51.464;11.964;2023-04-01T11:25:19;2.70;;;2.50;;
46931;SDS011;32670;51.464;11.964;2023-04-01T11:28:19;3.07;;;2.77;;
46931;SDS011;32670;51.464;11.964;2023-04-01T11:31:26;2.87;;;2.57;;
46931;SDS011;32670;51.464;11.964;2023-04-01T11:36:54;3.03;;;2.60;;
46931;SDS011;32670;51.464;11.964;2023-04-01T11:39:37;3.53;;;3.13;;
46931;SDS011;32670;51.464;11.964;2023-04-01T11:42:28;3.00;;;2.70;;
46931;SDS011;32670;51.464;11.964;2023-04-01T11:53:47;4.57;;;3.17;;
46931;SDS011;32670;51.464;11.964;2023-04-01T11:56:39;3.30;;;3.00;;
46931;SDS011;32670;51.464;11.964;2023-04-01T11:59:51;3.40;;;3.10;;
46931;SDS011;32670;51.464;11.964;2023-04-01T12:02:43;3.00;;;2.80;;
46931;SDS011;32670;51.464;11.964;2023-04-01T12:08:21;3.23;;;2.97;;
46931;SDS011;32670;51.464;11.964;2023-04-01T12:11:29;3.77;;;3.17;;
46931;SDS011;32670;51.464;11.964;2023-04-01T12:14:17;3.47;;;3.17;;
46931;SDS011;32670;51.464;11.964;2023-04-01T12:16:56;3.50;;;3.00;;
46931;SDS011;32670;51.464;11.964;2023-04-01T12:33:45;3.80;;;3.50;;
46931;SDS011;32670;51.464;11.964;2023-04-01T12:45:27;4.00;;;3.57;;
46931;SDS011;32670;51.464;11.964;2023-04-01T12:56:14;4.07;;;3.67;;
46931;SDS011;32670;51.464;11.964;2023-04-01T13:02:00;4.17;;;3.70;;
46931;SDS011;32670;51.464;11.964;2023-04-01T13:04:47;3.93;;;3.53;;
46931;SDS011;32670;51.464;11.964;2023-04-01T13:07:26;6.23;;;3.43;;
46931;SDS011;32670;51.464;11.964;2023-04-01T13:10:13;4.10;;;3.70;;
46931;SDS011;32670;51.464;11.964;2023-04-01T13:13:05;4.27;;;3.87;;
46931;SDS011;32670;51.464;11.964;2023-04-01T13:15:50;4.30;;;3.93;;
46931;SDS011;32670;51.464;11.964;2023-04-01T13:18:38;3.57;;;3.27;;
46931;SDS011;32670;51.464;11.964;2023-04-01T13:21:28;4.33;;;3.93;;
46931;SDS011;32670;51.464;11.964;2023-04-01T13:27:14;4.43;;;4.03;;
46931;SDS011;32670;51.464;11.964;2023-04-01T13:30:03;3.80;;;3.50;;
46931;SDS011;32670;51.464;11.964;2023-04-01T13:35:43;4.03;;;3.70;;
46931;SDS011;32670;51.464;11.964;2023-04-01T13:38:29;4.20;;;3.83;;
46931;SDS011;32670;51.464;11.964;2023-04-01T13:43:59;4.97;;;3.80;;
46931;SDS011;32670;51.464;11.964;2023-04-01T13:46:38;4.23;;;3.83;;
46931;SDS011;32670;51.464;11.964;2023-04-01T13:57:23;3.77;;;3.47;;
46931;SDS011;32670;51.464;11.964;2023-04-01T14:00:16;4.00;;;3.57;;
46931;SDS011;32670;51.464;11.964;2023-04-01T14:02:57;3.93;;;3.63;;
46931;SDS011;32670;51.464;11.964;2023-04-01T14:14:28;3.97;;;3.67;;
46931;SDS011;32670;51.464;11.964;2023-04-01T14:19:53;3.60;;;3.30;;
46931;SDS011;32670;51.464;11.964;2023-04-01T14:22:52;4.00;;;3.60;;
46931;SDS011;32670;51.464;11.964;2023-04-01T14:28:42;4.00;;;3.60;;
46931;SDS011;32670;51.464;11.964;2023-04-01T14:34:11;3.80;;;3.50;;
46931;SDS011;32670;51.464;11.964;2023-04-01T14:37:07;3.90;;;3.60;;
46931;SDS011;32670;51.464;11.964;2023-04-01T14:48:15;3.73;;;3.43;;
46931;SDS011;32670;51.464;11.964;2023-04-01T14:50:44;3.60;;;3.30;;
46931;SDS011;32670;51.464;11.964;2023-04-01T14:53:16;3.60;;;3.30;;
46931;SDS011;32670;51.464;11.964;2023-04-01T14:55:58;4.00;;;3.60;;
46931;SDS011;32670;51.464;11.964;2023-04-01T14:58:31;3.37;;;3.13;;
46931;SDS011;32670;51.464;11.964;2023-04-01T15:04:24;3.80;;;3.50;;
46931;SDS011;32670;51.464;11.964;2023-04-01T15:07:07;4.03;;;3.73;;
46931;SDS011;32670;51.464;11.964;2023-04-01T15:10:01;3.73;;;3.43;;
46931;SDS011;32670;51.464;11.964;2023-04-01T15:12:37;3.60;;;3.30;;
46931;SDS011;32670;51.464;11.964;2023-04-01T15:17:58;3.67;;;3.37;;
46931;SDS011;32670;51.464;11.964;2023-04-01T15:23:20;3.33;;;3.10;;
46931;SDS011;32670;51.464;11.964;2023-04-01T15:31:27;4.10;;;3.80;;
46931;SDS011;32670;51.464;11.964;2023-04-01T15:36:57;3.70;;;3.40;;
46931;SDS011;32670;51.464;11.964;2023-04-01T15:39:41;3.77;;;3.47;;
46931;SDS011;32670;51.464;11.964;2023-04-01T15:51:01;3.97;;;3.67;;
46931;SDS011;32670;51.464;11.964;2023-04-01T15:56:10;4.50;;;4.10;;
46931;SDS011;32670;51.464;11.964;2023-04-01T15:58:56;4.13;;;3.80;;
46931;SDS011;32670;51.464;11.964;2023-04-01T16:01:48;3.90;;;3.60;;
46931;SDS011;32670;51.464;11.964;2023-04-01T16:07:26;4.70;;;4.30;;
46931;SDS011;32670;51.464;11.964;2023-04-01T16:21:08;4.30;;;3.90;;
46931;SDS011;32670;51.464;11.964;2023-04-01T16:23:50;4.30;;;3.90;;
46931;SDS011;32670;51.464;11.964;2023-04-01T16:26:28;4.70;;;4.03;;
46931;SDS011;32670;51.464;11.964;2023-04-01T16:29:12;5.53;;;4.33;;
46931;SDS011;32670;51.464;11.964;2023-04-01T16:32:00;5.63;;;4.33;;
46931;SDS011;32670;51.464;11.964;2023-04-01T16:34:38;5.33;;;4.37;;
46931;SDS011;32670;51.464;11.964;2023-04-01T16:37:20;7.07;;;4.50;;
46931;SDS011;32670;51.464;11.964;2023-04-01T16:40:13;4.83;;;4.43;;
46931;SDS011;32670;51.464;11.964;2023-04-01T16:42:56;4.60;;;4.20;;
46931;SDS011;32670;51.464;11.964;2023-04-01T16:45:42;4.87;;;4.43;;
46931;SDS011;32670;51.464;11.964;2023-04-01T16:48:14;4.83;;;4.40;;
46931;SDS011;32670;51.464;11.964;2023-04-01T16:53:17;4.33;;;3.93;;
46931;SDS011;32670;51.464;11.964;2023-04-01T16:58:26;4.63;;;4.23;;
46931;SDS011;32670;51.464;11.964;2023-04-01T17:01:02;5.10;;;3.97;;
46931;SDS011;32670;51.464;11.964;2023-04-01T17:03:33;4.23;;;3.83;;
46931;SDS011;32670;51.464;11.964;2023-04-01T17:06:07;4.57;;;4.17;;
46931;SDS011;32670;51.464;11.964;2023-04-01T17:08:55;4.97;;;4.30;;
46931;SDS011;32670;51.464;11.964;2023-04-01T17:11:44;4.40;;;4.00;;
46931;SDS011;32670;51.464;11.964;2023-04-01T17:14:30;4.83;;;4.20;;
46931;SDS011;32670;51.464;11.964;2023-04-01T17:22:53;5.13;;;4.23;;
46931;SDS011;32670;51.464;11.964;2023-04-01T17:25:29;5.63;;;4.30;;
46931;SDS011;32670;51.464;11.964;2023-04-01T17:28:24;4.30;;;3.90;;
46931;SDS011;32670;51.464;11.964;2023-04-01T17:31:14;4.07;;;3.77;;
46931;SDS011;32670;51.464;11.964;2023-04-01T17:34:05;4.27;;;3.93;;
46931;SDS011;32670;51.464;11.964;2023-04-01T17:37:20;4.43;;;4.03;;
46931;SDS011;32670;51.464;11.964;2023-04-01T17:42:55;4.33;;;3.93;;
46931;SDS011;32670;51.464;11.964;2023-04-01T17:45:36;4.73;;;4.33;;
46931;SDS011;32670;51.464;11.964;2023-04-01T17:50:53;4.27;;;3.87;;
46931;SDS011;32670;51.464;11.964;2023-04-01T17:53:47;3.97;;;3.67;;
46931;SDS011;32670;51.464;11.964;2023-04-01T17:56:33;4.40;;;4.00;;
46931;SDS011;32670;51.464;11.964;2023-04-01T18:02:19;4.80;;;4.20;;
46931;SDS011;32670;51.464;11.964;2023-04-01T18:07:51;4.30;;;3.90;;
46931;SDS011;32670;51.464;11.964;2023-04-01T18:10:40;4.40;;;4.00;;
46931;SDS011;32670;51.464;11.964;2023-04-01T18:19:06;4.40;;;4.00;;
46931;SDS011;32670;51.464;11.964;2023-04-01T18:21:57;4.33;;;4.03;;
46931;SDS011;32670;51.464;11.964;2023-04-01T18:24:48;5.47;;;3.87;;
46931;SDS011;32670;51.464;11.964;2023-04-01T18:27:38;4.47;;;4.07;;
46931;SDS011;32670;51.464;11.964;2023-04-01T18:30:28;4.00;;;3.70;;
46931;SDS011;32670;51.464;11.964;2023-04-01T18:33:04;4.23;;;3.83;;
46931;SDS011;32670;51.464;11.964;2023-04-01T18:35:52;5.00;;;4.20;;
46931;SDS011;32670;51.464;11.964;2023-04-01T18:38:53;4.47;;;4.07;;
46931;SDS011;32670;51.464;11.964;2023-04-01T18:49:29;5.07;;;3.87;;
46931;SDS011;32670;51.464;11.964;2023-04-01T18:52:10;4.50;;;4.10;;
46931;SDS011;32670;51.464;11.964;2023-04-01T18:54:52;4.30;;;3.90;;
46931;SDS011;32670;51.464;11.964;2023-04-01T18:57:19;3.87;;;3.57;;
46931;SDS011;32670;51.464;11.964;2023-04-01T18:59:47;4.80;;;3.80;;
46931;SDS011;32670;51.464;11.964;2023-04-01T19:04:58;4.17;;;3.77;;
46931;SDS011;32670;51.464;11.964;2023-04-01T19:07:45;3.90;;;3.60;;
46931;SDS011;32670;51.464;11.964;2023-04-01T19:10:22;4.20;;;3.90;;
46931;SDS011;32670;51.464;11.964;2023-04-01T19:16:05;4.20;;;3.90;;
46931;SDS011;32670;51.464;11.964;2023-04-01T19:21:58;4.47;;;4.07;;
46931;SDS011;32670;51.464;11.964;2023-04-01T19:27:50;3.90;;;3.50;;
46931;SDS011;32670;51.464;11.964;2023-04-01T19:30:27;4.10;;;3.80;;
46931;SDS011;32670;51.464;11.964;2023-04-01T19:38:40;3.77;;;3.47;;
46931;SDS011;32670;51.464;11.964;2023-04-01T19:50:41;3.53;;;3.23;;
46931;SDS011;32670;51.464;11.964;2023-04-01T19:53:24;3.83;;;3.47;;
46931;SDS011;32670;51.464;11.964;2023-04-01T19:56:16;4.57;;;4.00;;
46931;SDS011;32670;51.464;11.964;2023-04-01T19:58:54;4.63;;;4.23;;
46931;SDS011;32670;51.464;11.964;2023-04-01T20:01:31;5.10;;;3.53;;
46931;SDS011;32670;51.464;11.964;2023-04-01T20:04:26;10.67;;;3.90;;
46931;SDS011;32670;51.464;11.964;2023-04-01T20:06:58;4.27;;;3.77;;
46931;SDS011;32670;51.464;11.964;2023-04-01T20:09:54;9.00;;;3.57;;
46931;SDS011;32670;51.464;11.964;2023-04-01T20:12:34;4.13;;;3.70;;
46931;SDS011;32670;51.464;11.964;2023-04-01T20:15:28;4.40;;;3.70;;
46931;SDS011;32670;51.464;11.964;2023-04-01T20:18:13;5.73;;;3.70;;
46931;SDS011;32670;51.464;11.964;2023-04-01T20:21:02;4.07;;;3.60;;
46931;SDS011;32670;51.464;11.964;2023-04-01T20:23:41;6.40;;;4.40;;
46931;SDS011;32670;51.464;11.964;2023-04-01T20:26:08;4.07;;;3.67;;
46931;SDS011;32670;51.464;11.964;2023-04-01T20:31:23;4.77;;;3.50;;
46931;SDS011;32670;51.464;11.964;2023-04-01T20:34:13;4.50;;;3.73;;
46931;SDS011;32670;51.464;11.964;2023-04-01T20:37:32;4.63;;;3.90;;
46931;SDS011;32670;51.464;11.964;2023-04-01T20:39:48;5.60;;;3.63;;
46931;SDS011;32670;51.464;11.964;2023-04-01T20:42:47;4.37;;;3.30;;
46931;SDS011;32670;51.464;11.964;2023-04-01T20:45:33;6.83;;;3.40;;
46931;SDS011;32670;51.464;11.964;2023-04-01T20:50:57;6.00;;;3.57;;
46931;SDS011;32670;51.464;11.964;2023-04-01T20:53:35;5.43;;;3.50;;
46931;SDS011;32670;51.464;11.964;2023-04-01T20:59:28;3.97;;;3.63;;
46931;SDS011;32670;51.464;11.964;2023-04-01T21:05:43;3.57;;;3.27;;
46931;SDS011;32670;51.464;11.964;2023-04-01T21:08:11;3.37;;;3.07;;
46931;SDS011;32670;51.464;11.964;2023-04-01T21:10:52;3.50;;;3.20;;